Time;durP1;ratioP1;P1;durP2;ratioP2;P2;SDS_P1;SDS_P2;PMS_P1;PMS_P2;Temp;Humidity;BMP_temperature;BMP_pressure;BME280_temperature;BME280_humidity;BME280_pressure;Samples;Min_cycle;Max_cycle;Signal;HPM_P1;HPM_P2
2021/06/01 09:22:59;;;;;;;10.57;6.50;;;23.10;32.40;;;;;;4976812;28;20041;-59
2021/06/01 09:25:43;;;;;;;5.80;5.20;;;23.20;32.80;;;;;;4992680;28;20050;-60
2021/06/01 09:28:15;;;;;;;8.10;6.28;;;23.20;32.80;;;;;;4982599;28;20062;-61
2021/06/01 09:30:59;;;;;;;6.72;5.70;;;23.40;32.30;;;;;;4987952;28;20038;-60
2021/06/01 09:33:32;;;;;;;8.07;7.38;;;23.50;31.70;;;;;;5001189;28;20041;-61
2021/06/01 09:36:00;;;;;;;9.70;6.90;;;23.40;31.80;;;;;;4995838;28;20034;-60
2021/06/01 09:38:40;;;;;;;7.88;6.88;;;23.40;32.30;;;;;;4997211;28;20531;-59
2021/06/01 09:41:29;;;;;;;8.45;7.03;;;23.50;32.10;;;;;;4986048;28;20065;-59
2021/06/01 09:43:55;;;;;;;7.10;6.50;;;23.60;32.10;;;;;;4979525;28;20049;-60
2021/06/01 09:46:21;;;;;;;9.07;8.15;;;23.60;31.90;;;;;;4990334;28;20039;-59
2021/06/01 09:48:48;;;;;;;11.10;7.20;;;23.80;32.00;;;;;;4976527;28;20035;-60
2021/06/01 09:51:27;;;;;;;9.85;7.45;;;23.90;31.80;;;;;;4990281;28;20041;-60
2021/06/01 09:53:55;;;;;;;7.90;7.10;;;23.90;31.20;;;;;;4985041;28;20038;-59
2021/06/01 09:56:21;;;;;;;9.02;6.72;;;23.90;31.50;;;;;;4981690;28;20129;-60
2021/06/01 09:58:47;;;;;;;10.77;7.40;;;23.90;31.30;;;;;;4981912;28;20512;-60
2021/06/01 10:01:13;;;;;;;7.38;6.57;;;23.80;31.40;;;;;;5000419;28;20034;-60
2021/06/01 10:03:38;;;;;;;8.15;7.05;;;24.00;31.30;;;;;;4998222;28;20108;-59
2021/06/01 10:06:05;;;;;;;8.43;7.70;;;24.10;31.60;;;;;;4985936;28;20054;-59
2021/06/01 10:08:32;;;;;;;7.65;6.95;;;24.20;31.20;;;;;;4974351;28;20039;-60
2021/06/01 10:11:03;;;;;;;8.85;8.05;;;24.30;31.00;;;;;;4993898;28;20128;-61
2021/06/01 10:13:33;;;;;;;8.32;7.50;;;24.40;30.20;;;;;;4992118;28;20121;-60
2021/06/01 10:16:02;;;;;;;7.80;7.00;;;24.50;30.90;;;;;;4989694;28;20039;-58
2021/06/01 10:18:30;;;;;;;10.13;9.13;;;24.60;31.50;;;;;;4974698;28;20093;-59
2021/06/01 10:21:00;;;;;;;10.20;9.30;;;24.50;30.20;;;;;;4973026;28;20114;-59
2021/06/01 10:23:34;;;;;;;8.93;8.02;;;24.40;30.20;;;;;;4969181;28;20049;-58
2021/06/01 10:26:00;;;;;;;8.32;7.35;;;24.40;30.30;;;;;;4966071;28;20043;-59
2021/06/01 10:28:32;;;;;;;8.70;7.88;;;24.50;30.50;;;;;;4989148;28;20062;-59
2021/06/01 10:30:58;;;;;;;9.73;8.68;;;24.80;29.80;;;;;;4972510;28;20500;-59
2021/06/01 10:33:27;;;;;;;10.82;9.73;;;24.80;29.90;;;;;;4986373;28;20034;-59
2021/06/01 10:36:05;;;;;;;10.73;9.73;;;24.90;29.60;;;;;;4975465;28;20043;-60
2021/06/01 10:50:22;;;;;;;8.85;8.05;;;25.60;28.70;;;;;;4965267;28;20053;-59
2021/06/01 10:53:16;;;;;;;7.82;7.13;;;25.90;28.70;;;;;;4966121;28;20051;-60
2021/06/01 10:55:58;;;;;;;7.80;7.10;;;26.40;50.80;;;;;;4954997;28;20038;-58
2021/06/01 10:58:29;;;;;;;8.30;7.50;;;26.60;48.90;;;;;;4965216;28;20465;-59
2021/06/01 11:04:06;;;;;;;10.52;9.55;;;27.50;26.60;;;;;;4946675;28;20456;-59
2021/06/01 11:09:44;;;;;;;10.77;9.77;;;28.10;25.80;;;;;;4958912;28;20057;-58
2021/06/01 11:12:18;;;;;;;9.30;8.38;;;28.60;31.70;;;;;;4945599;28;20522;-59
2021/06/01 11:14:45;;;;;;;10.38;9.57;;;29.50;25.00;;;;;;4956277;28;20047;-59
2021/06/01 11:17:10;;;;;;;12.40;10.20;;;30.30;26.10;;;;;;4967744;28;20050;-60
2021/06/01 11:19:59;;;;;;;11.63;10.38;;;30.40;24.90;;;;;;4962790;28;20400;-59
2021/06/01 11:22:37;;;;;;;8.13;7.35;;;30.30;24.00;;;;;;4961126;28;20045;-59
2021/06/01 11:35:53;;;;;;;9.57;8.68;;;29.10;25.20;;;;;;4958617;28;20062;-60
2021/06/01 11:38:22;;;;;;;9.10;8.18;;;29.10;25.20;;;;;;4980708;28;20361;-60
2021/06/01 11:43:25;;;;;;;8.82;7.22;;;29.40;24.60;;;;;;4960819;28;20118;-60
2021/06/01 11:46:22;;;;;;;8.57;7.47;;;29.60;25.10;;;;;;4961980;28;20800;-57
2021/06/01 11:51:14;;;;;;;10.45;9.40;;;30.00;23.90;;;;;;4970516;28;20046;-60
2021/06/01 11:53:53;;;;;;;14.35;9.95;;;30.50;24.00;;;;;;4978666;28;20106;-60
2021/06/01 12:13:18;;;;;;;10.80;9.80;;;30.50;25.10;;;;;;4940182;28;20109;-59
2021/06/01 12:18:41;;;;;;;13.93;12.25;;;30.50;24.10;;;;;;4935024;28;20054;-59
2021/06/01 12:21:14;;;;;;;11.52;10.48;;;30.50;23.90;;;;;;4969684;28;20200;-58
2021/06/01 12:23:46;;;;;;;12.50;10.43;;;30.60;24.10;;;;;;4974042;28;20069;-59
2021/06/01 12:26:17;;;;;;;15.63;12.88;;;30.80;24.00;;;;;;4977786;28;20038;-59
2021/06/01 12:32:09;;;;;;;12.38;10.18;;;31.20;23.80;;;;;;4951179;28;20054;-60
2021/06/01 13:30:44;;;;;;;8.63;7.65;;;35.40;19.10;;;;;;4943186;28;20507;-60
2021/06/01 13:47:20;;;;;;;8.18;6.93;;;34.80;19.90;;;;;;4954894;28;20388;-60
2021/06/01 13:49:53;;;;;;;8.25;7.45;;;33.60;21.00;;;;;;4959139;28;20078;-60
2021/06/01 14:00:12;;;;;;;5.90;5.13;;;34.30;20.70;;;;;;4958142;28;20511;-60
2021/06/01 15:24:41;;;;;;;7.25;5.60;;;33.50;21.00;;;;;;4979530;28;20538;-60
2021/06/01 15:30:04;;;;;;;7.07;5.65;;;33.60;20.90;;;;;;4973717;28;20222;-60
2021/06/01 15:41:23;;;;;;;5.45;5.05;;;32.40;21.30;;;;;;4901259;28;23044;-59
